createdAt,value
2017-05-14T00:00:39.459Z,23.04
2017-05-14T00:01:39.463Z,23.13
2017-05-14T00:02:39.166Z,23.04
2017-05-14T00:03:39.526Z,23.13
2017-05-14T00:04:39.487Z,23.07
2017-05-14T00:05:39.186Z,23.09
2017-05-14T00:06:39.498Z,23.13
2017-05-14T00:07:38.886Z,23.13
2017-05-14T00:08:39.512Z,23.17
2017-05-14T00:09:39.518Z,23.04
2017-05-14T00:10:39.527Z,23.04
2017-05-14T00:11:39.534Z,22.98
2017-05-14T00:12:39.280Z,23.1
2017-05-14T00:13:39.552Z,23.07
2017-05-14T00:14:39.556Z,23.05
2017-05-14T00:15:39.614Z,23
2017-05-14T00:16:39.563Z,23.04
2017-05-14T00:17:39.270Z,23.05
2017-05-14T00:18:39.271Z,23.13
2017-05-14T00:19:39.280Z,23.13
2017-05-14T00:20:39.902Z,23.15
2017-05-14T00:21:39.292Z,23.16
2017-05-14T00:22:39.302Z,23.12
2017-05-14T00:23:39.308Z,23.05
2017-05-14T00:24:39.410Z,23.02
2017-05-14T00:25:39.636Z,23.13
2017-05-14T00:26:39.638Z,23.15
2017-05-14T00:27:39.383Z,23.12
2017-05-14T00:28:39.659Z,23.15
2017-05-14T00:29:39.660Z,23.13
2017-05-14T00:30:39.359Z,23.19
2017-05-14T00:31:39.721Z,23.09
2017-05-14T00:32:39.367Z,23.15
2017-05-14T00:33:39.685Z,23.15
2017-05-14T00:34:39.694Z,23.05
2017-05-14T00:35:39.436Z,23
2017-05-14T00:36:39.397Z,23.04
2017-05-14T00:37:39.408Z,23.01
2017-05-14T00:38:39.732Z,23.01
2017-05-14T00:39:39.734Z,22.97
2017-05-14T00:40:39.734Z,23
2017-05-14T00:41:39.430Z,23.02
2017-05-14T00:42:39.446Z,22.98
2017-05-14T00:43:39.764Z,23.07
2017-05-14T00:44:39.776Z,23.04
2017-05-14T00:45:39.458Z,23.02
2017-05-14T00:46:39.777Z,22.94
2017-05-14T00:47:39.786Z,23.05
2017-05-14T00:48:39.795Z,23.04
2017-05-14T00:49:39.794Z,23.04
2017-05-14T00:50:39.852Z,22.98
2017-05-14T00:51:39.190Z,23
2017-05-14T00:52:39.819Z,23.04
2017-05-14T00:53:40.126Z,23.01
2017-05-14T00:54:39.831Z,23.02
2017-05-14T00:55:39.838Z,23.02
2017-05-14T00:56:39.539Z,23.02
2017-05-14T00:57:39.849Z,23
2017-05-14T00:58:39.914Z,23.02
2017-05-14T00:59:39.862Z,23.01
2017-05-14T01:00:39.872Z,23.01
2017-05-14T01:01:39.567Z,23
2017-05-14T01:02:39.632Z,22.98
2017-05-14T01:03:39.898Z,23.04
2017-05-14T01:04:39.905Z,23.05
2017-05-14T01:05:39.596Z,23.02
2017-05-14T01:06:39.605Z,23.01
2017-05-14T01:07:39.978Z,23.1
2017-05-14T01:08:39.931Z,23.05
2017-05-14T01:09:39.935Z,23
2017-05-14T01:10:39.993Z,23.01
2017-05-14T01:11:39.997Z,23.02
2017-05-14T01:12:39.335Z,22.98
2017-05-14T01:13:39.962Z,23
2017-05-14T01:14:39.968Z,22.95
2017-05-14T01:15:40.026Z,22.97
2017-05-14T01:16:39.981Z,23
2017-05-14T01:17:39.683Z,23.02
2017-05-14T01:18:39.740Z,23.04
2017-05-14T01:19:39.697Z,23.04
2017-05-14T01:20:40.012Z,23
2017-05-14T01:21:40.018Z,23.07
2017-05-14T01:22:39.713Z,22.94
2017-05-14T01:23:39.721Z,23.02
2017-05-14T01:24:40.039Z,23.05
2017-05-14T01:25:40.046Z,23.09
2017-05-14T01:26:40.051Z,23.02
2017-05-14T01:27:39.802Z,23.02
2017-05-14T01:28:40.121Z,22.98
2017-05-14T01:29:39.761Z,22.94
2017-05-14T01:30:40.129Z,22.94
2017-05-14T01:31:40.087Z,23.07
2017-05-14T01:32:39.780Z,23.01
2017-05-14T01:33:40.103Z,23
2017-05-14T01:34:40.208Z,22.95
2017-05-14T01:35:40.164Z,22.97
2017-05-14T01:36:40.118Z,22.85
2017-05-14T01:37:40.127Z,22.91
2017-05-14T01:38:40.130Z,22.97
2017-05-14T01:39:40.144Z,22.88
2017-05-14T01:40:40.195Z,23
2017-05-14T01:41:40.154Z,22.82
2017-05-14T01:42:40.161Z,22.86
2017-05-14T01:43:40.165Z,22.94
2017-05-14T01:44:40.174Z,22.86
2017-05-14T01:45:40.181Z,22.98
2017-05-14T01:46:40.188Z,22.88
2017-05-14T01:47:39.888Z,22.85
2017-05-14T01:48:40.206Z,22.83
2017-05-14T01:49:40.209Z,22.94
2017-05-14T01:50:40.265Z,22.95
2017-05-14T01:51:40.277Z,22.88
2017-05-14T01:52:40.243Z,22.86
2017-05-14T01:53:39.937Z,22.94
2017-05-14T01:54:40.243Z,22.86
2017-05-14T01:55:40.252Z,22.86
2017-05-14T01:56:40.304Z,22.83
2017-05-14T01:57:40.266Z,22.88
2017-05-14T01:58:40.274Z,22.95
2017-05-14T01:59:40.283Z,22.86
2017-05-14T02:00:40.287Z,22.85
2017-05-14T02:01:39.981Z,22.91
2017-05-14T02:02:39.730Z,22.91
2017-05-14T02:03:40.310Z,22.92
2017-05-14T02:04:40.312Z,22.91
2017-05-14T02:05:40.371Z,23
2017-05-14T02:06:40.328Z,22.95
2017-05-14T02:07:40.026Z,22.88
2017-05-14T02:08:40.344Z,22.98
2017-05-14T02:09:40.042Z,22.9
2017-05-14T02:10:40.354Z,22.9
2017-05-14T02:11:40.361Z,22.88
2017-05-14T02:12:40.371Z,22.9
2017-05-14T02:13:40.379Z,22.92
2017-05-14T02:14:40.382Z,22.94
2017-05-14T02:15:40.392Z,22.95
2017-05-14T02:16:40.398Z,22.85
2017-05-14T02:17:40.454Z,22.91
2017-05-14T02:18:40.461Z,22.94
2017-05-14T02:19:40.418Z,22.94
2017-05-14T02:20:40.477Z,22.97
2017-05-14T02:21:40.433Z,22.94
2017-05-14T02:22:40.490Z,22.94
2017-05-14T02:23:40.448Z,22.83
2017-05-14T02:24:40.451Z,22.86
2017-05-14T02:25:40.508Z,22.92
2017-05-14T02:26:40.470Z,22.92
2017-05-14T02:27:40.475Z,22.8
2017-05-14T02:28:40.530Z,22.92
2017-05-14T02:29:40.176Z,22.83
2017-05-14T02:30:40.186Z,22.83
2017-05-14T02:31:40.189Z,22.8
2017-05-14T02:32:40.199Z,22.85
2017-05-14T02:33:40.203Z,22.86
2017-05-14T02:34:39.897Z,22.9
2017-05-14T02:35:40.880Z,22.86
2017-05-14T02:36:40.225Z,22.83
2017-05-14T02:37:40.542Z,22.83
2017-05-14T02:38:40.547Z,22.88
2017-05-14T02:39:40.247Z,22.86
2017-05-14T02:40:40.562Z,22.88
2017-05-14T02:41:40.571Z,22.91
2017-05-14T02:42:40.578Z,22.83
2017-05-14T02:43:40.888Z,22.88
2017-05-14T02:44:40.640Z,22.88
2017-05-14T02:45:40.644Z,22.9
2017-05-14T02:46:40.607Z,22.83
2017-05-14T02:47:40.613Z,22.88
2017-05-14T02:48:40.621Z,22.86
2017-05-14T02:49:40.627Z,22.86
2017-05-14T02:50:40.630Z,22.86
2017-05-14T02:51:40.328Z,22.85
2017-05-14T02:52:40.696Z,22.83
2017-05-14T02:53:40.713Z,22.86
2017-05-14T02:54:40.658Z,22.88
2017-05-14T02:55:40.668Z,22.91
2017-05-14T02:56:40.672Z,22.86
2017-05-14T02:57:40.678Z,22.82
2017-05-14T02:58:40.687Z,22.85
2017-05-14T02:59:40.383Z,22.82
2017-05-14T03:00:40.699Z,22.86
2017-05-14T03:01:40.703Z,22.85
2017-05-14T03:02:40.715Z,22.8
2017-05-14T03:03:40.413Z,22.82
2017-05-14T03:04:40.420Z,22.82
2017-05-14T03:05:40.782Z,22.86
2017-05-14T03:06:40.739Z,22.9
2017-05-14T03:07:40.488Z,22.9
2017-05-14T03:08:40.759Z,22.86
2017-05-14T03:09:40.761Z,22.9
2017-05-14T03:10:40.768Z,22.92
2017-05-14T03:11:40.778Z,22.92
2017-05-14T03:12:40.840Z,22.91
2017-05-14T03:13:40.795Z,22.92
2017-05-14T03:14:40.534Z,22.91
2017-05-14T03:15:40.852Z,22.92
2017-05-14T03:16:40.802Z,22.9
2017-05-14T03:17:40.928Z,22.8
2017-05-14T03:18:40.822Z,22.95
2017-05-14T03:19:40.522Z,22.91
2017-05-14T03:20:40.575Z,22.91
2017-05-14T03:21:40.866Z,22.91
2017-05-14T03:22:40.558Z,22.94
2017-05-14T03:23:40.856Z,22.88
2017-05-14T03:24:40.865Z,22.83
2017-05-14T03:25:40.247Z,22.92
2017-05-14T03:26:40.879Z,22.94
2017-05-14T03:27:40.888Z,22.88
2017-05-14T03:28:40.889Z,22.86
2017-05-14T03:29:40.947Z,22.91
2017-05-14T03:30:40.910Z,22.86
2017-05-14T03:31:40.914Z,22.86
2017-05-14T03:32:40.917Z,22.97
2017-05-14T03:33:40.930Z,22.94
2017-05-14T03:34:40.934Z,22.9
2017-05-14T03:35:40.987Z,22.92
2017-05-14T03:36:41.006Z,22.95
2017-05-14T03:37:40.954Z,22.86
2017-05-14T03:38:40.959Z,22.86
2017-05-14T03:39:40.966Z,22.91
2017-05-14T03:40:41.014Z,22.94
2017-05-14T03:41:41.030Z,22.88
2017-05-14T03:42:40.998Z,22.95
2017-05-14T03:43:40.999Z,22.94
2017-05-14T03:44:41.000Z,22.91
2017-05-14T03:45:41.309Z,22.98
2017-05-14T03:46:40.751Z,22.91
2017-05-14T03:47:41.025Z,22.97
2017-05-14T03:48:40.406Z,22.88
2017-05-14T03:49:40.723Z,22.98
2017-05-14T03:50:41.090Z,22.91
2017-05-14T03:51:41.050Z,22.94
2017-05-14T03:52:41.056Z,22.95
2017-05-14T03:53:41.064Z,23
2017-05-14T03:54:41.068Z,22.97
2017-05-14T03:55:40.763Z,23
2017-05-14T03:56:41.081Z,23.02
2017-05-14T03:57:40.832Z,23.02
2017-05-14T03:58:40.782Z,22.91
2017-05-14T03:59:41.108Z,23
2017-05-14T04:00:41.160Z,22.86
2017-05-14T04:01:41.117Z,22.97
2017-05-14T04:02:40.867Z,22.94
2017-05-14T04:03:40.559Z,22.91
2017-05-14T04:04:41.135Z,22.98
2017-05-14T04:05:41.143Z,22.98
2017-05-14T04:06:41.155Z,22.94
2017-05-14T04:07:41.157Z,22.97
2017-05-14T04:08:41.166Z,22.98
2017-05-14T04:09:41.170Z,23.09
2017-05-14T04:10:41.175Z,23.01
2017-05-14T04:11:41.185Z,23.01
2017-05-14T04:12:40.930Z,22.98
2017-05-14T04:13:41.198Z,23.02
2017-05-14T04:14:41.206Z,23
2017-05-14T04:15:41.264Z,23
2017-05-14T04:16:41.218Z,23.02
2017-05-14T04:17:41.324Z,22.98
2017-05-14T04:18:41.243Z,23.01
2017-05-14T04:19:40.934Z,23.01
2017-05-14T04:20:40.937Z,23
2017-05-14T04:21:41.256Z,22.97
2017-05-14T04:22:40.948Z,23.01
2017-05-14T04:23:41.279Z,23.12
2017-05-14T04:24:40.961Z,23.02
2017-05-14T04:25:41.279Z,23.15
2017-05-14T04:26:40.668Z,23.13
2017-05-14T04:27:40.988Z,23.13
2017-05-14T04:28:41.366Z,23.16
2017-05-14T04:29:41.306Z,23.16
2017-05-14T04:30:41.003Z,23.2
2017-05-14T04:31:41.325Z,23.17
2017-05-14T04:32:41.381Z,23.31
2017-05-14T04:33:41.028Z,23.36
2017-05-14T04:34:41.346Z,23.33
2017-05-14T04:35:41.399Z,23.31
2017-05-14T04:36:41.361Z,23.31
2017-05-14T04:37:41.372Z,23.35
2017-05-14T04:38:41.375Z,23.27
2017-05-14T04:39:40.757Z,23.33
2017-05-14T04:40:41.385Z,23.35
2017-05-14T04:41:41.081Z,23.25
2017-05-14T04:42:41.394Z,23.38
2017-05-14T04:43:41.412Z,23.46
2017-05-14T04:44:41.157Z,23.5
2017-05-14T04:45:41.108Z,23.5
2017-05-14T04:46:41.427Z,23.51
2017-05-14T04:47:41.433Z,23.58
2017-05-14T04:48:41.130Z,23.57
2017-05-14T04:49:41.135Z,23.79
2017-05-14T04:50:40.885Z,23.7
2017-05-14T04:51:41.461Z,23.6
2017-05-14T04:52:41.472Z,23.5
2017-05-14T04:53:41.479Z,23.53
2017-05-14T04:54:41.535Z,23.5
2017-05-14T04:55:41.541Z,23.53
2017-05-14T04:56:41.501Z,23.53
2017-05-14T04:57:41.504Z,23.69
2017-05-14T04:58:41.564Z,23.69
2017-05-14T04:59:41.576Z,23.68
2017-05-14T05:00:41.578Z,23.65
2017-05-14T05:01:41.534Z,23.78
2017-05-14T05:02:41.591Z,23.54
2017-05-14T05:03:41.552Z,23.65
2017-05-14T05:04:41.243Z,23.69
2017-05-14T05:05:41.611Z,23.6
2017-05-14T05:06:41.570Z,23.79
2017-05-14T05:07:41.631Z,23.91
2017-05-14T05:08:41.278Z,24.06
2017-05-14T05:09:41.595Z,24.24
2017-05-14T05:10:41.290Z,24.32
2017-05-14T05:11:41.610Z,24.39
2017-05-14T05:12:41.618Z,24.49
2017-05-14T05:13:41.625Z,24.65
2017-05-14T05:14:41.636Z,24.68
2017-05-14T05:15:41.384Z,24.65
2017-05-14T05:16:41.340Z,24.81
2017-05-14T05:17:41.726Z,24.9
2017-05-14T05:18:41.458Z,24.98
2017-05-14T05:19:41.724Z,25.05
2017-05-14T05:20:41.685Z,25.03
2017-05-14T05:21:41.737Z,25.05
2017-05-14T05:22:41.395Z,25.08
2017-05-14T05:23:41.705Z,25.09
2017-05-14T05:24:41.405Z,25.17
2017-05-14T05:25:41.724Z,25.23
2017-05-14T05:26:41.740Z,25.42
2017-05-14T05:27:41.746Z,25.42
2017-05-14T05:28:41.128Z,25.58
2017-05-14T05:29:41.500Z,25.6
2017-05-14T05:30:41.461Z,25.76
2017-05-14T05:31:41.779Z,25.7
2017-05-14T05:32:41.477Z,25.67
2017-05-14T05:33:41.484Z,25.73
2017-05-14T05:34:41.805Z,25.75
2017-05-14T05:35:41.817Z,25.87
2017-05-14T05:36:41.514Z,25.88
2017-05-14T05:37:41.319Z,26.02
2017-05-14T05:38:41.892Z,26.12
2017-05-14T05:39:41.851Z,26.12
2017-05-14T05:40:41.549Z,26.13
2017-05-14T05:41:41.606Z,26.3
2017-05-14T05:42:41.880Z,26.37
2017-05-14T05:43:41.884Z,26.5
2017-05-14T05:44:41.895Z,26.65
2017-05-14T05:45:41.904Z,26.8
2017-05-14T05:46:41.606Z,26.88
2017-05-14T05:47:41.664Z,27.09
2017-05-14T05:48:41.622Z,27.09
2017-05-14T05:49:41.629Z,27.17
2017-05-14T05:50:41.641Z,27.12
2017-05-14T05:51:41.650Z,27.17
2017-05-14T05:52:41.708Z,27.37
2017-05-14T05:53:41.671Z,27.63
2017-05-14T05:54:41.681Z,27.92
2017-05-14T05:55:41.693Z,27.84
2017-05-14T05:56:41.801Z,27.9
2017-05-14T05:57:41.717Z,28
2017-05-14T05:58:41.766Z,28.12
2017-05-14T05:59:42.104Z,28.31
2017-05-14T06:00:41.741Z,28.52
2017-05-14T06:01:41.821Z,28.67
2017-05-14T06:02:42.065Z,29.04
2017-05-14T06:03:41.562Z,29.21
2017-05-14T06:04:41.466Z,29.23
2017-05-14T06:05:42.097Z,29.34
2017-05-14T06:06:41.796Z,29.45
2017-05-14T06:07:41.861Z,29.87
2017-05-14T06:08:42.128Z,30
2017-05-14T06:09:42.140Z,29.7
2017-05-14T06:10:41.836Z,28.22
2017-05-14T06:11:42.206Z,27.1
2017-05-14T06:12:42.219Z,26.55
2017-05-14T06:13:42.176Z,26.17
2017-05-14T06:14:41.876Z,25.95
2017-05-14T06:15:41.886Z,25.72
2017-05-14T06:16:42.206Z,25.69
2017-05-14T06:17:41.904Z,25.62
2017-05-14T06:18:42.228Z,25.52
2017-05-14T06:19:42.248Z,25.51
2017-05-14T06:20:42.244Z,25.54
2017-05-14T06:21:41.984Z,25.43
2017-05-14T06:22:42.000Z,25.23
2017-05-14T06:23:42.271Z,25.14
2017-05-14T06:24:41.970Z,25.21
2017-05-14T06:25:41.975Z,25.24
2017-05-14T06:26:42.292Z,25.39
2017-05-14T06:27:42.300Z,25.38
2017-05-14T06:28:42.004Z,25.21
2017-05-14T06:29:42.320Z,25.14
2017-05-14T06:30:42.425Z,25.1
2017-05-14T06:31:41.715Z,25.17
2017-05-14T06:32:42.342Z,25.17
2017-05-14T06:33:42.039Z,25.23
2017-05-14T06:34:42.113Z,25.33
2017-05-14T06:35:42.369Z,25.33
2017-05-14T06:36:42.376Z,25.36
2017-05-14T06:37:42.386Z,25.38
2017-05-14T06:38:42.398Z,25.4
2017-05-14T06:39:42.400Z,25.42
2017-05-14T06:40:42.104Z,25.46
2017-05-14T06:41:42.418Z,25.52
2017-05-14T06:42:42.426Z,25.57
2017-05-14T06:43:42.433Z,26.09
2017-05-14T06:44:42.447Z,26.06
2017-05-14T06:45:42.454Z,26.87
2017-05-14T06:46:42.150Z,27.17
2017-05-14T06:47:42.464Z,27.82
2017-05-14T06:48:42.476Z,29.26
2017-05-14T06:49:42.173Z,30.24
2017-05-14T06:50:42.539Z,30.75
2017-05-14T06:51:41.890Z,30.53
2017-05-14T06:52:41.887Z,29.14
2017-05-14T06:53:42.224Z,29.31
2017-05-14T06:54:42.595Z,29.9
2017-05-14T06:55:41.920Z,30.23
2017-05-14T06:56:42.548Z,30.47
2017-05-14T06:57:41.938Z,30.55
2017-05-14T06:58:42.619Z,30.65
2017-05-14T06:59:42.677Z,30.65
2017-05-14T07:00:42.280Z,30.72
2017-05-14T07:01:42.337Z,30.99
2017-05-14T07:02:42.660Z,30.99
2017-05-14T07:03:42.621Z,30.84
2017-05-14T07:04:42.684Z,30.82
2017-05-14T07:05:42.688Z,30.89
2017-05-14T07:06:42.339Z,30.98
2017-05-14T07:07:42.663Z,31.12
2017-05-14T07:08:42.723Z,31.46
2017-05-14T07:09:42.733Z,31.41
2017-05-14T07:10:42.693Z,31.41
2017-05-14T07:11:42.448Z,31.35
2017-05-14T07:12:42.406Z,31.41
2017-05-14T07:13:42.730Z,31.35
2017-05-14T07:14:42.741Z,31.58
2017-05-14T07:15:42.799Z,31.66
2017-05-14T07:16:42.763Z,31.76
2017-05-14T07:17:42.462Z,31.65
2017-05-14T07:18:42.530Z,31.65
2017-05-14T07:19:42.794Z,31.61
2017-05-14T07:20:42.861Z,31.65
2017-05-14T07:21:42.825Z,31.69
2017-05-14T07:22:42.834Z,31.65
2017-05-14T07:23:42.849Z,31.63
2017-05-14T07:24:42.851Z,31.92
2017-05-14T07:25:42.912Z,31.91
2017-05-14T07:26:42.561Z,31.02
2017-05-14T07:27:42.578Z,29.61
2017-05-14T07:28:42.901Z,27.77
2017-05-14T07:29:42.282Z,26.76
2017-05-14T07:30:42.915Z,26.32
2017-05-14T07:31:42.926Z,25.97
2017-05-14T07:32:42.939Z,25.9
2017-05-14T07:33:42.330Z,25.79
2017-05-14T07:34:42.642Z,25.65
2017-05-14T07:35:42.706Z,25.54
2017-05-14T07:36:42.664Z,25.5
2017-05-14T07:37:42.672Z,25.51
2017-05-14T07:38:42.685Z,25.57
2017-05-14T07:39:43.004Z,25.51
2017-05-14T07:40:42.442Z,25.45
2017-05-14T07:41:42.397Z,25.32
2017-05-14T07:42:42.730Z,25.24
2017-05-14T07:43:43.048Z,25.39
2017-05-14T07:44:42.736Z,25.21
2017-05-14T07:45:43.106Z,25.18
2017-05-14T07:46:42.752Z,25.08
2017-05-14T07:47:42.810Z,25.1
2017-05-14T07:48:42.820Z,25.13
2017-05-14T07:49:42.469Z,25.05
2017-05-14T07:50:43.097Z,25.03
2017-05-14T07:51:42.798Z,24.99
2017-05-14T07:52:42.852Z,25.05
2017-05-14T07:53:42.861Z,25
2017-05-14T07:54:43.129Z,24.98
2017-05-14T07:55:43.138Z,24.91
2017-05-14T07:56:42.836Z,24.93
2017-05-14T07:57:43.156Z,24.95
2017-05-14T07:58:42.896Z,24.88
2017-05-14T07:59:43.223Z,24.87
2017-05-14T08:00:43.230Z,24.85
2017-05-14T08:01:43.189Z,24.83
2017-05-14T08:02:42.884Z,24.8
2017-05-14T08:03:43.251Z,24.69
2017-05-14T08:04:42.908Z,24.83
2017-05-14T08:05:42.959Z,24.76
2017-05-14T08:06:43.235Z,24.84
2017-05-14T08:07:43.237Z,24.73
2017-05-14T08:08:42.934Z,24.73
2017-05-14T08:09:42.938Z,24.77
2017-05-14T08:10:43.258Z,24.65
2017-05-14T08:11:43.317Z,24.62
2017-05-14T08:12:43.572Z,24.65
2017-05-14T08:13:42.969Z,24.68
2017-05-14T08:14:43.340Z,24.69
2017-05-14T08:15:42.990Z,24.61
2017-05-14T08:16:42.995Z,24.58
2017-05-14T08:17:43.052Z,24.65
2017-05-14T08:18:43.116Z,24.65
2017-05-14T08:19:43.335Z,24.71
2017-05-14T08:20:43.042Z,24.9
2017-05-14T08:21:43.349Z,24.96
2017-05-14T08:22:43.404Z,25
2017-05-14T08:23:42.738Z,25
2017-05-14T08:24:43.061Z,25
2017-05-14T08:25:43.114Z,25
2017-05-14T08:26:43.436Z,25.03
2017-05-14T08:27:43.392Z,24.91
2017-05-14T08:28:43.403Z,24.9
2017-05-14T08:29:43.100Z,24.88
2017-05-14T08:30:43.417Z,24.83
2017-05-14T08:31:43.425Z,24.84
2017-05-14T08:32:42.811Z,24.83
2017-05-14T08:33:43.131Z,24.77
2017-05-14T08:34:42.824Z,24.73
2017-05-14T08:35:43.146Z,24.58
2017-05-14T08:36:43.152Z,24.58
2017-05-14T08:37:43.164Z,24.58
2017-05-14T08:38:43.529Z,24.61
2017-05-14T08:39:43.535Z,24.65
2017-05-14T08:40:43.279Z,24.49
2017-05-14T08:41:43.501Z,24.45
2017-05-14T08:42:43.510Z,24.4
2017-05-14T08:43:43.519Z,24.35
2017-05-14T08:44:43.523Z,24.37
2017-05-14T08:45:43.532Z,24.39
2017-05-14T08:46:43.641Z,24.32
2017-05-14T08:47:42.929Z,24.39
2017-05-14T08:48:43.296Z,24.31
2017-05-14T08:49:43.255Z,24.31
2017-05-14T08:50:43.572Z,24.4
2017-05-14T08:51:43.581Z,24.35
2017-05-14T08:52:43.593Z,24.45
2017-05-14T08:53:43.600Z,24.5
2017-05-14T08:54:42.980Z,24.46
2017-05-14T08:55:43.354Z,24.52
2017-05-14T08:56:43.306Z,24.43
2017-05-14T08:57:43.628Z,24.42
2017-05-14T08:58:43.010Z,24.42
2017-05-14T08:59:43.381Z,24.39
2017-05-14T09:00:43.648Z,24.34
2017-05-14T09:01:43.035Z,24.34
2017-05-14T09:02:43.964Z,24.34
2017-05-14T09:03:43.671Z,24.35
2017-05-14T09:04:43.057Z,24.28
2017-05-14T09:05:43.376Z,24.4
2017-05-14T09:06:43.715Z,24.3
2017-05-14T09:07:43.392Z,24.31
2017-05-14T09:08:43.401Z,24.35
2017-05-14T09:09:43.455Z,24.43
2017-05-14T09:10:43.731Z,24.39
2017-05-14T09:11:43.734Z,24.34
2017-05-14T09:12:43.741Z,24.47
2017-05-14T09:13:43.748Z,24.57
2017-05-14T09:14:43.755Z,24.52
2017-05-14T09:15:43.761Z,24.55
2017-05-14T09:16:43.509Z,24.6
2017-05-14T09:17:43.473Z,24.67
2017-05-14T09:18:43.792Z,24.8
2017-05-14T09:19:43.845Z,24.84
2017-05-14T09:20:43.799Z,24.81
2017-05-14T09:21:43.499Z,24.78
2017-05-14T09:22:43.820Z,24.73
2017-05-14T09:23:43.259Z,24.78
2017-05-14T09:24:43.521Z,24.65
2017-05-14T09:25:43.529Z,24.68
2017-05-14T09:26:43.539Z,24.68
2017-05-14T09:27:43.856Z,24.58
2017-05-14T09:28:43.593Z,24.52
2017-05-14T09:29:43.300Z,24.47
2017-05-14T09:30:43.255Z,24.47
2017-05-14T09:31:43.885Z,24.47
2017-05-14T09:32:43.577Z,24.57
2017-05-14T09:33:43.900Z,24.52
2017-05-14T09:34:43.603Z,24.55
2017-05-14T09:35:43.611Z,24.73
2017-05-14T09:36:43.978Z,24.65
2017-05-14T09:37:43.983Z,24.68
2017-05-14T09:38:43.936Z,24.78
2017-05-14T09:39:43.635Z,24.69
2017-05-14T09:40:43.959Z,24.68
2017-05-14T09:41:43.966Z,24.62
2017-05-14T09:42:44.022Z,24.53
2017-05-14T09:43:43.670Z,24.65
2017-05-14T09:44:43.987Z,24.67
2017-05-14T09:45:43.994Z,24.67
2017-05-14T09:46:44.000Z,24.65
2017-05-14T09:47:44.009Z,24.68
2017-05-14T09:48:43.708Z,24.73
2017-05-14T09:49:43.714Z,24.71
2017-05-14T09:50:44.036Z,24.83
2017-05-14T09:51:44.041Z,24.91
2017-05-14T09:52:43.738Z,25
2017-05-14T09:53:43.798Z,25.05
2017-05-14T09:54:43.756Z,24.91
2017-05-14T09:55:43.764Z,24.83
2017-05-14T09:56:44.081Z,24.84
2017-05-14T09:57:43.782Z,24.83
2017-05-14T09:58:44.150Z,24.77
2017-05-14T09:59:43.846Z,24.77
2017-05-14T10:00:43.808Z,24.68
2017-05-14T10:01:43.810Z,24.62
2017-05-14T10:02:43.818Z,24.62
2017-05-14T10:03:44.136Z,24.64
2017-05-14T10:04:44.143Z,24.58
2017-05-14T10:05:43.531Z,24.71
2017-05-14T10:06:44.211Z,24.73
2017-05-14T10:07:44.180Z,24.8
2017-05-14T10:08:44.174Z,24.73
2017-05-14T10:09:43.874Z,24.77
2017-05-14T10:10:43.576Z,24.8
2017-05-14T10:11:43.889Z,24.67
2017-05-14T10:12:44.207Z,24.78
2017-05-14T10:13:44.265Z,24.8
2017-05-14T10:14:44.276Z,24.76
2017-05-14T10:15:43.972Z,24.73
2017-05-14T10:16:44.246Z,24.73
2017-05-14T10:17:43.941Z,24.8
2017-05-14T10:18:43.995Z,24.83
2017-05-14T10:19:44.261Z,24.78
2017-05-14T10:20:43.960Z,24.73
2017-05-14T10:21:44.280Z,24.61
2017-05-14T10:22:44.289Z,24.65
2017-05-14T10:23:44.293Z,24.62
2017-05-14T10:24:44.042Z,24.68
2017-05-14T10:25:44.306Z,24.78
2017-05-14T10:26:44.319Z,24.68
2017-05-14T10:27:44.326Z,24.76
2017-05-14T10:28:44.382Z,24.73
2017-05-14T10:29:44.347Z,24.65
2017-05-14T10:30:44.359Z,24.78
2017-05-14T10:31:44.359Z,24.76
2017-05-14T10:32:44.056Z,24.77
2017-05-14T10:33:44.069Z,24.71
2017-05-14T10:34:44.071Z,24.67
2017-05-14T10:35:44.396Z,24.65
2017-05-14T10:36:44.395Z,24.81
2017-05-14T10:37:44.413Z,24.69
2017-05-14T10:38:44.413Z,24.76
2017-05-14T10:39:44.111Z,24.64
2017-05-14T10:40:44.429Z,24.58
2017-05-14T10:41:44.438Z,24.61
2017-05-14T10:42:44.451Z,24.53
2017-05-14T10:43:44.144Z,24.6
2017-05-14T10:44:44.510Z,24.53
2017-05-14T10:45:43.890Z,24.5
2017-05-14T10:46:43.853Z,24.46
2017-05-14T10:47:44.483Z,24.57
2017-05-14T10:48:44.179Z,24.53
2017-05-14T10:49:44.499Z,24.53
2017-05-14T10:50:44.508Z,24.55
2017-05-14T10:51:44.204Z,24.47
2017-05-14T10:52:44.524Z,24.47
2017-05-14T10:53:44.216Z,24.42
2017-05-14T10:54:44.234Z,24.35
2017-05-14T10:55:44.238Z,24.45
2017-05-14T10:56:44.553Z,24.46
2017-05-14T10:57:44.308Z,24.49
2017-05-14T10:58:44.623Z,24.52
2017-05-14T10:59:44.270Z,24.42
2017-05-14T11:00:44.588Z,24.55
2017-05-14T11:01:44.284Z,24.5
2017-05-14T11:02:44.024Z,24.46
2017-05-14T11:03:44.606Z,24.45
2017-05-14T11:04:44.663Z,24.47
2017-05-14T11:05:44.365Z,24.37
2017-05-14T11:06:44.639Z,24.31
2017-05-14T11:07:44.642Z,24.3
2017-05-14T11:08:44.337Z,24.22
2017-05-14T11:09:44.650Z,24.18
2017-05-14T11:10:44.453Z,24.2
2017-05-14T11:11:44.668Z,24.15
2017-05-14T11:12:44.366Z,24.16
2017-05-14T11:13:44.376Z,24.18
2017-05-14T11:14:44.696Z,24.21
2017-05-14T11:15:44.391Z,24.24
2017-05-14T11:16:44.760Z,24.24
2017-05-14T11:17:44.404Z,24.3
2017-05-14T11:18:44.465Z,24.31
2017-05-14T11:19:44.730Z,24.28
2017-05-14T11:20:44.429Z,24.34
2017-05-14T11:21:44.750Z,24.28
2017-05-14T11:22:44.135Z,24.34
2017-05-14T11:23:44.765Z,24.42
2017-05-14T11:24:44.767Z,24.42
2017-05-14T11:25:44.780Z,24.4
2017-05-14T11:26:44.790Z,24.49
2017-05-14T11:27:44.843Z,24.47
2017-05-14T11:28:44.801Z,24.46
2017-05-14T11:29:44.807Z,24.55
2017-05-14T11:30:44.815Z,24.52
2017-05-14T11:31:44.512Z,24.47
2017-05-14T11:32:44.831Z,24.39
2017-05-14T11:33:44.530Z,24.47
2017-05-14T11:34:44.894Z,24.3
2017-05-14T11:35:44.853Z,24.37
2017-05-14T11:36:44.552Z,24.37
2017-05-14T11:37:44.557Z,24.35
2017-05-14T11:38:44.883Z,24.42
2017-05-14T11:39:44.886Z,24.46
2017-05-14T11:40:44.895Z,24.47
2017-05-14T11:41:44.590Z,24.46
2017-05-14T11:42:44.907Z,24.39
2017-05-14T11:43:44.923Z,24.45
2017-05-14T11:44:44.924Z,24.49
2017-05-14T11:45:44.932Z,24.55
2017-05-14T11:46:44.943Z,24.6
2017-05-14T11:47:44.998Z,24.65
2017-05-14T11:48:44.958Z,24.68
2017-05-14T11:49:44.653Z,24.71
2017-05-14T11:50:44.713Z,24.71
2017-05-14T11:51:44.718Z,24.73
2017-05-14T11:52:44.677Z,24.81
2017-05-14T11:53:44.993Z,24.83
2017-05-14T11:54:45.001Z,24.8
2017-05-14T11:55:45.011Z,24.76
2017-05-14T11:56:45.018Z,24.77
2017-05-14T11:57:45.030Z,24.68
2017-05-14T11:58:45.033Z,24.67
2017-05-14T11:59:45.040Z,24.58
2017-05-14T12:00:45.038Z,24.53
2017-05-14T12:01:44.747Z,24.55
2017-05-14T12:02:45.071Z,24.53
2017-05-14T12:03:45.072Z,24.5
2017-05-14T12:04:45.077Z,24.55
2017-05-14T12:05:44.827Z,24.47
2017-05-14T12:06:45.094Z,24.52
2017-05-14T12:07:45.104Z,24.47
2017-05-14T12:08:45.115Z,24.34
2017-05-14T12:09:45.172Z,24.4
2017-05-14T12:10:45.126Z,24.39
2017-05-14T12:11:44.516Z,24.39
2017-05-14T12:12:45.196Z,24.4
2017-05-14T12:13:45.148Z,24.43
2017-05-14T12:14:44.850Z,24.43
2017-05-14T12:15:45.167Z,24.49
2017-05-14T12:16:45.173Z,24.5
2017-05-14T12:17:45.180Z,24.5
2017-05-14T12:18:45.240Z,24.47
2017-05-14T12:19:45.195Z,24.46
2017-05-14T12:20:44.591Z,24.42
2017-05-14T12:21:44.899Z,24.32
2017-05-14T12:22:44.964Z,24.4
2017-05-14T12:23:44.928Z,24.28
2017-05-14T12:24:45.240Z,24.32
2017-05-14T12:25:45.247Z,24.24
2017-05-14T12:26:45.251Z,24.31
2017-05-14T12:27:45.261Z,24.37
2017-05-14T12:28:45.278Z,24.34
2017-05-14T12:29:44.965Z,24.3
2017-05-14T12:30:45.021Z,24.16
2017-05-14T12:31:45.289Z,24.22
2017-05-14T12:32:45.299Z,24.16
2017-05-14T12:33:45.306Z,24.21
2017-05-14T12:34:45.311Z,24.21
2017-05-14T12:35:45.319Z,24.22
2017-05-14T12:36:45.327Z,24.25
2017-05-14T12:37:45.025Z,24.22
2017-05-14T12:38:45.088Z,24.21
2017-05-14T12:39:45.039Z,24.22
2017-05-14T12:40:45.362Z,24.18
2017-05-14T12:41:45.362Z,24.24
2017-05-14T12:42:45.065Z,24.32
2017-05-14T12:43:45.378Z,24.37
2017-05-14T12:44:45.385Z,24.39
2017-05-14T12:45:45.446Z,24.47
2017-05-14T12:46:45.404Z,24.52
2017-05-14T12:47:45.101Z,24.5
2017-05-14T12:48:45.109Z,24.52
2017-05-14T12:49:45.485Z,24.5
2017-05-14T12:50:45.482Z,24.46
2017-05-14T12:51:45.442Z,24.47
2017-05-14T12:52:45.453Z,24.43
2017-05-14T12:53:45.505Z,24.49
2017-05-14T12:54:45.517Z,24.47
2017-05-14T12:55:45.163Z,24.47
2017-05-14T12:56:45.173Z,24.35
2017-05-14T12:57:45.487Z,24.32